createdAt,value
2023-04-22T00:00:27.343Z,64.78
2023-04-22T00:01:27.716Z,64.78
2023-04-22T00:02:28.107Z,64.89
2023-04-22T00:03:28.623Z,64.58
2023-04-22T00:04:28.850Z,64.58
2023-04-22T00:05:29.193Z,64.78
2023-04-22T00:06:29.481Z,64.89
2023-04-22T00:07:29.801Z,64.89
2023-04-22T00:08:30.158Z,64.78
2023-04-22T00:09:30.517Z,64.99
2023-04-22T00:10:30.874Z,65.09
2023-04-22T00:11:31.260Z,64.99
2023-04-22T00:12:31.598Z,64.78
2023-04-22T00:13:31.953Z,64.89
2023-04-22T00:14:32.313Z,65.09
2023-04-22T00:15:32.716Z,65.09
2023-04-22T00:16:33.069Z,65.40
2023-04-22T00:17:33.443Z,65.09
2023-04-22T00:18:33.734Z,64.99
2023-04-22T00:19:34.083Z,65.43
2023-04-22T00:20:34.476Z,65.33
2023-04-22T00:21:34.835Z,65.33
2023-04-22T00:22:35.159Z,65.22
2023-04-22T00:23:35.537Z,64.99
2023-04-22T00:24:35.879Z,64.68
2023-04-22T00:25:36.333Z,64.78
2023-04-22T00:26:36.590Z,64.89
2023-04-22T00:27:36.952Z,64.89
2023-04-22T00:28:37.286Z,64.68
2023-04-22T00:29:37.804Z,64.78
2023-04-22T00:30:38.049Z,64.89
2023-04-22T00:31:38.468Z,64.99
2023-04-22T00:32:38.765Z,65.12
2023-04-22T00:33:39.095Z,65.22
2023-04-22T00:34:39.443Z,65.22
2023-04-22T00:35:39.815Z,65.12
2023-04-22T00:36:40.219Z,65.22
2023-04-22T00:37:40.533Z,65.53
2023-04-22T00:38:40.883Z,65.53
2023-04-22T00:39:41.576Z,65.84
2023-04-22T00:40:41.615Z,65.84
2023-04-22T00:41:42.264Z,66.04
2023-04-22T00:42:42.320Z,65.84
2023-04-22T00:43:42.688Z,65.94
2023-04-22T00:44:43.050Z,65.73
2023-04-22T00:45:43.406Z,65.84
2023-04-22T00:46:43.799Z,65.84
2023-04-22T00:47:44.216Z,66.38
2023-04-22T00:48:44.490Z,66.07
2023-04-22T00:49:44.843Z,66.28
2023-04-22T00:50:45.214Z,66.07
2023-04-22T00:51:45.579Z,66.07
2023-04-22T00:52:45.914Z,66.17
2023-04-22T00:53:46.276Z,66.07
2023-04-22T00:54:46.641Z,66.38
2023-04-22T00:55:47.008Z,66.07
2023-04-22T00:56:47.407Z,66.07
2023-04-22T00:57:47.716Z,66.17
2023-04-22T00:58:48.081Z,66.28
2023-04-22T00:59:48.447Z,66.48
2023-04-22T01:00:48.895Z,66.38
2023-04-22T01:01:49.212Z,66.28
2023-04-22T01:02:49.671Z,66.38
2023-04-22T01:03:50.227Z,66.38
2023-04-22T01:04:50.260Z,66.28
2023-04-22T01:05:50.628Z,66.58
2023-04-22T01:06:51.005Z,66.78
2023-04-22T01:07:51.372Z,67.19
2023-04-22T01:08:51.735Z,67.13
2023-04-22T01:09:52.103Z,66.99
2023-04-22T01:10:52.471Z,66.99
2023-04-22T01:11:52.850Z,66.89
2023-04-22T01:12:53.185Z,67.10
2023-04-22T01:13:53.545Z,67.33
2023-04-22T01:14:53.910Z,67.23
2023-04-22T01:15:54.276Z,67.10
2023-04-22T01:16:54.687Z,66.99
2023-04-22T01:17:55.095Z,67.13
2023-04-22T01:18:55.366Z,67.23
2023-04-22T01:19:55.775Z,67.54
2023-04-22T01:20:56.088Z,67.74
2023-04-22T01:21:56.450Z,67.94
2023-04-22T01:22:56.774Z,68.05
2023-04-22T01:23:57.167Z,67.84
2023-04-22T01:24:57.506Z,67.94
2023-04-22T01:25:57.861Z,67.94
2023-04-22T01:26:58.245Z,68.15
2023-04-22T01:27:58.599Z,68.05
2023-04-22T01:28:58.947Z,68.38
2023-04-22T01:29:59.311Z,68.08
2023-04-22T01:30:59.664Z,68.18
2023-04-22T01:32:00.106Z,68.49
2023-04-22T01:33:00.446Z,68.59
2023-04-22T01:34:00.763Z,68.79
2023-04-22T01:35:01.109Z,68.93
2023-04-22T01:36:01.455Z,69.24
2023-04-22T01:37:01.898Z,69.54
2023-04-22T01:38:02.172Z,69.75
2023-04-22T01:39:02.510Z,69.65
2023-04-22T01:40:02.895Z,69.75
2023-04-22T01:41:03.234Z,70.26
2023-04-22T01:42:03.650Z,70.26
2023-04-22T01:43:03.944Z,70.06
2023-04-22T01:44:04.281Z,69.65
2023-04-22T01:45:04.627Z,69.95
2023-04-22T01:46:05.087Z,70.60
2023-04-22T01:47:05.362Z,71.01
2023-04-22T01:48:05.759Z,70.47
2023-04-22T01:49:06.059Z,69.54
2023-04-22T01:50:06.404Z,69.65
2023-04-22T01:51:06.802Z,69.65
2023-04-22T01:52:07.209Z,69.85
2023-04-22T01:53:07.479Z,69.85
2023-04-22T01:54:07.835Z,70.26
2023-04-22T01:55:08.204Z,70.36
2023-04-22T01:56:08.568Z,70.60
2023-04-22T01:57:08.951Z,70.60
2023-04-22T01:58:09.268Z,70.81
2023-04-22T01:59:09.623Z,71.01
2023-04-22T02:00:09.985Z,71.32
2023-04-22T02:01:10.439Z,71.86
2023-04-22T02:02:10.839Z,72.17
2023-04-22T02:03:11.166Z,72.38
2023-04-22T02:04:11.398Z,73.02
2023-04-22T02:05:11.783Z,72.61
2023-04-22T02:06:12.096Z,72.72
2023-04-22T02:07:12.475Z,73.23
2023-04-22T02:08:12.788Z,73.23
2023-04-22T02:09:13.129Z,73.13
2023-04-22T02:10:13.472Z,73.44
2023-04-22T02:11:13.827Z,73.74
2023-04-22T02:12:14.187Z,73.78
2023-04-22T02:13:14.526Z,73.78
2023-04-22T02:14:14.859Z,74.32
2023-04-22T02:15:15.188Z,74.74
2023-04-22T02:16:15.586Z,75.18
2023-04-22T02:17:15.902Z,75.90
2023-04-22T02:18:16.235Z,75.80
2023-04-22T02:19:16.585Z,75.25
2023-04-22T02:20:17.022Z,75.15
2023-04-22T02:21:17.295Z,74.70
2023-04-22T02:22:17.645Z,74.70
2023-04-22T02:23:18.007Z,74.84
2023-04-22T02:24:18.356Z,74.29
2023-04-22T02:25:18.863Z,74.70
2023-04-22T02:26:19.051Z,74.19
2023-04-22T02:27:19.435Z,74.29
2023-04-22T02:28:19.774Z,74.40
2023-04-22T02:29:20.121Z,74.29
2023-04-22T02:30:20.477Z,74.60
2023-04-22T02:31:20.885Z,74.80
2023-04-22T02:32:21.221Z,74.70
2023-04-22T02:33:21.500Z,74.70
2023-04-22T02:34:21.844Z,73.98
2023-04-22T02:35:22.180Z,73.85
2023-04-22T02:36:22.525Z,73.54
2023-04-22T02:37:22.920Z,73.64
2023-04-22T02:38:23.206Z,73.64
2023-04-22T02:39:23.538Z,73.74
2023-04-22T02:40:23.876Z,73.74
2023-04-22T02:41:24.242Z,73.74
2023-04-22T02:42:24.594Z,73.64
2023-04-22T02:43:24.918Z,73.54
2023-04-22T02:44:25.260Z,73.23
2023-04-22T02:45:25.611Z,73.44
2023-04-22T02:46:26.042Z,73.54
2023-04-22T02:47:26.348Z,73.64
2023-04-22T02:48:26.669Z,73.85
2023-04-22T02:49:27.038Z,73.85
2023-04-22T02:50:27.371Z,73.85
2023-04-22T02:51:27.725Z,73.95
2023-04-22T02:52:28.068Z,74.05
2023-04-22T02:53:28.414Z,74.15
2023-04-22T02:54:28.753Z,74.05
2023-04-22T02:55:29.105Z,74.26
2023-04-22T02:56:29.448Z,74.05
2023-04-22T02:57:29.783Z,74.15
2023-04-22T02:58:30.136Z,74.29
2023-04-22T02:59:30.478Z,74.40
2023-04-22T03:00:30.890Z,74.40
2023-04-22T03:01:31.361Z,74.60
2023-04-22T03:02:31.694Z,74.40
2023-04-22T03:03:32.143Z,74.40
2023-04-22T03:04:32.269Z,74.49
2023-04-22T03:05:32.595Z,74.49
2023-04-22T03:06:32.975Z,74.60
2023-04-22T03:07:33.323Z,74.70
2023-04-22T03:08:33.657Z,74.70
2023-04-22T03:09:34.019Z,74.80
2023-04-22T03:10:34.399Z,75.01
2023-04-22T03:11:34.722Z,74.91
2023-04-22T03:12:35.081Z,75.01
2023-04-22T03:13:35.459Z,75.01
2023-04-22T03:14:35.780Z,75.01
2023-04-22T03:15:36.119Z,74.80
2023-04-22T03:16:36.519Z,74.91
2023-04-22T03:17:36.996Z,75.32
2023-04-22T03:18:37.160Z,75.35
2023-04-22T03:19:37.594Z,75.45
2023-04-22T03:20:37.863Z,75.45
2023-04-22T03:21:38.212Z,75.45
2023-04-22T03:22:38.653Z,75.32
2023-04-22T03:23:38.900Z,75.21
2023-04-22T03:24:39.236Z,75.32
2023-04-22T03:25:39.601Z,75.32
2023-04-22T03:26:39.974Z,75.11
2023-04-22T03:27:40.383Z,75.11
2023-04-22T03:28:40.570Z,75.01
2023-04-22T03:29:41.175Z,75.01
2023-04-22T03:30:41.133Z,74.80
2023-04-22T03:31:41.456Z,74.91
2023-04-22T03:32:41.862Z,75.11
2023-04-22T03:33:42.057Z,75.11
2023-04-22T03:34:42.357Z,75.01
2023-04-22T03:35:42.687Z,75.21
2023-04-22T03:36:42.928Z,75.21
2023-04-22T03:37:43.242Z,75.01
2023-04-22T03:38:43.522Z,75.01
2023-04-22T03:39:43.823Z,75.21
2023-04-22T03:40:44.091Z,75.01
2023-04-22T03:41:44.372Z,75.21
2023-04-22T03:42:44.677Z,75.21
2023-04-22T03:43:44.957Z,75.21
2023-04-22T03:44:45.255Z,75.11
2023-04-22T03:45:45.580Z,75.21
2023-04-22T03:46:45.738Z,75.21
2023-04-22T03:47:46.044Z,75.11
2023-04-22T03:48:46.292Z,75.11
2023-04-22T03:49:46.477Z,75.11
2023-04-22T03:50:46.755Z,75.32
2023-04-22T03:51:47.080Z,75.42
2023-04-22T03:52:47.365Z,75.52
2023-04-22T03:53:47.648Z,75.52
2023-04-22T03:54:47.939Z,75.76
2023-04-22T03:55:48.094Z,75.97
2023-04-22T03:56:48.407Z,76.17
2023-04-22T03:57:48.690Z,76.38
2023-04-22T03:58:48.844Z,76.48
2023-04-22T03:59:49.005Z,76.68
2023-04-22T04:00:49.312Z,76.48
2023-04-22T04:01:49.457Z,76.38
2023-04-22T04:02:49.974Z,76.28
2023-04-22T04:03:50.055Z,76.48
2023-04-22T04:04:50.450Z,76.58
2023-04-22T04:05:50.497Z,76.68
2023-04-22T04:06:50.555Z,76.68
2023-04-22T04:07:50.742Z,76.68
2023-04-22T04:08:50.910Z,77.00
2023-04-22T04:09:51.078Z,77.13
2023-04-22T04:10:51.255Z,77.00
2023-04-22T04:11:51.462Z,76.89
2023-04-22T04:12:51.607Z,76.89
2023-04-22T04:13:51.889Z,76.89
2023-04-22T04:14:52.196Z,77.00
2023-04-22T04:15:52.388Z,76.89
2023-04-22T04:16:52.539Z,76.79
2023-04-22T04:17:52.829Z,76.89
2023-04-22T04:18:52.992Z,76.89
2023-04-22T04:19:53.168Z,77.10
2023-04-22T04:20:53.359Z,77.00
2023-04-22T04:21:53.611Z,77.00
2023-04-22T04:22:53.800Z,76.89
2023-04-22T04:23:53.954Z,77.00
2023-04-22T04:24:54.251Z,77.00
2023-04-22T04:25:54.426Z,77.00
2023-04-22T04:26:54.615Z,77.20
2023-04-22T04:27:54.912Z,77.10
2023-04-22T04:28:55.053Z,77.20
2023-04-22T04:29:55.230Z,77.10
2023-04-22T04:30:55.444Z,77.00
2023-04-22T04:31:55.664Z,76.75
2023-04-22T04:32:55.893Z,76.45
2023-04-22T04:33:55.996Z,76.24
2023-04-22T04:34:56.176Z,75.90
2023-04-22T04:35:56.343Z,75.59
2023-04-22T04:36:56.516Z,75.38
2023-04-22T04:37:56.754Z,75.38
2023-04-22T04:38:56.982Z,75.15
2023-04-22T04:39:57.136Z,74.73
2023-04-22T04:40:57.332Z,74.19
2023-04-22T04:41:57.505Z,73.98
2023-04-22T04:42:57.819Z,73.98
2023-04-22T04:43:57.991Z,73.64
2023-04-22T04:44:58.321Z,73.33
2023-04-22T04:45:58.483Z,73.44
2023-04-22T04:46:58.765Z,73.23
2023-04-22T04:47:58.891Z,73.23
2023-04-22T04:48:59.004Z,73.13
2023-04-22T04:49:59.183Z,72.82
2023-04-22T04:50:59.352Z,72.58
2023-04-22T04:51:59.528Z,72.17
2023-04-22T04:52:59.701Z,71.94
2023-04-22T04:53:59.889Z,71.94
2023-04-22T04:55:00.081Z,72.04
2023-04-22T04:56:00.248Z,72.04
2023-04-22T04:57:00.416Z,72.04
2023-04-22T04:58:00.628Z,71.90
2023-04-22T04:59:00.763Z,71.70
2023-04-22T05:00:00.947Z,71.05
2023-04-22T05:01:01.124Z,70.78
2023-04-22T05:02:01.324Z,71.05
2023-04-22T05:03:01.626Z,70.54
2023-04-22T05:04:01.848Z,70.67
2023-04-22T05:05:01.883Z,70.78
2023-04-22T05:06:02.017Z,70.98
2023-04-22T05:07:02.217Z,70.98
2023-04-22T05:08:02.432Z,71.15
2023-04-22T05:09:02.564Z,70.81
2023-04-22T05:10:02.779Z,70.30
2023-04-22T05:11:02.972Z,70.30
2023-04-22T05:12:03.152Z,69.89
2023-04-22T05:13:04.410Z,70.00
2023-04-22T05:14:03.471Z,69.89
2023-04-22T05:15:03.690Z,70.00
2023-04-22T05:16:03.868Z,69.96
2023-04-22T05:17:04.050Z,69.96
2023-04-22T05:18:04.265Z,69.15
2023-04-22T05:19:04.419Z,69.35
2023-04-22T05:20:04.612Z,69.21
2023-04-22T05:21:04.810Z,68.84
2023-04-22T05:22:04.990Z,69.35
2023-04-22T05:23:05.191Z,69.56
2023-04-22T05:24:05.338Z,69.65
2023-04-22T05:25:05.554Z,69.35
2023-04-22T05:26:05.709Z,69.35
2023-04-22T05:27:05.885Z,69.11
2023-04-22T05:28:06.124Z,69.01
2023-04-22T05:29:06.259Z,69.01
2023-04-22T05:30:06.444Z,68.80
2023-04-22T05:31:06.632Z,68.57
2023-04-22T05:32:06.905Z,68.57
2023-04-22T05:33:07.075Z,68.37
2023-04-22T05:34:07.222Z,68.57
2023-04-22T05:35:07.408Z,68.26
2023-04-22T05:36:07.596Z,67.72
2023-04-22T05:37:07.779Z,67.93
2023-04-22T05:38:07.988Z,67.72
2023-04-22T05:39:08.141Z,67.29
2023-04-22T05:40:08.378Z,67.18
2023-04-22T05:41:08.514Z,66.97
2023-04-22T05:42:08.707Z,67.38
2023-04-22T05:43:08.944Z,67.32
2023-04-22T05:44:09.073Z,67.49
2023-04-22T05:45:09.291Z,67.29
2023-04-22T05:46:09.521Z,67.35
2023-04-22T05:47:09.673Z,66.85
2023-04-22T05:48:09.898Z,67.35
2023-04-22T05:49:10.061Z,67.25
2023-04-22T05:50:10.257Z,66.44
2023-04-22T05:51:10.463Z,66.61
2023-04-22T05:52:10.610Z,66.10
2023-04-22T05:53:10.795Z,65.69
2023-04-22T05:54:10.971Z,66.20
2023-04-22T05:55:11.174Z,65.89
2023-04-22T05:56:11.353Z,65.89
2023-04-22T05:57:11.559Z,65.77
2023-04-22T05:58:11.709Z,65.46
2023-04-22T05:59:11.892Z,65.25
2023-04-22T06:00:12.078Z,65.66
2023-04-22T06:01:12.290Z,65.05
2023-04-22T06:02:12.514Z,64.84
2023-04-22T06:03:12.796Z,65.25
2023-04-22T06:04:13.165Z,65.36
2023-04-22T06:05:13.256Z,65.56
2023-04-22T06:06:13.203Z,65.86
2023-04-22T06:07:13.357Z,65.77
2023-04-22T06:08:13.541Z,66.10
2023-04-22T06:09:13.720Z,66.10
2023-04-22T06:10:13.915Z,66.20
2023-04-22T06:11:14.134Z,66.50
2023-04-22T06:12:14.292Z,66.50
2023-04-22T06:13:14.484Z,66.91
2023-04-22T06:14:14.678Z,67.12
2023-04-22T06:15:14.848Z,67.12
2023-04-22T06:16:15.082Z,66.82
2023-04-22T06:17:15.204Z,66.82
2023-04-22T06:18:15.412Z,67.22
2023-04-22T06:19:15.590Z,67.43
2023-04-22T06:20:15.774Z,67.22
2023-04-22T06:21:15.965Z,66.50
2023-04-22T06:22:16.155Z,66.50
2023-04-22T06:23:16.343Z,67.12
2023-04-22T06:24:16.532Z,67.52
2023-04-22T06:25:16.745Z,66.61
2023-04-22T06:26:16.924Z,67.02
2023-04-22T06:27:17.071Z,67.22
2023-04-22T06:28:17.262Z,67.02
2023-04-22T06:29:17.455Z,66.82
2023-04-22T06:30:17.610Z,67.32
2023-04-22T06:31:18.950Z,67.49
2023-04-22T06:32:18.000Z,66.68
2023-04-22T06:33:18.176Z,66.88
2023-04-22T06:34:18.352Z,67.08
2023-04-22T06:35:18.526Z,67.08
2023-04-22T06:36:18.750Z,66.65
2023-04-22T06:37:18.907Z,66.65
2023-04-22T06:38:19.089Z,66.65
2023-04-22T06:39:19.269Z,67.46
2023-04-22T06:40:19.453Z,67.26
2023-04-22T06:41:19.657Z,66.85
2023-04-22T06:42:19.807Z,66.14
2023-04-22T06:43:19.998Z,65.80
2023-04-22T06:44:20.183Z,66.61
2023-04-22T06:45:20.373Z,66.00
2023-04-22T06:46:20.612Z,65.91
2023-04-22T06:47:20.784Z,66.49
2023-04-22T06:48:20.917Z,66.08
2023-04-22T06:49:21.094Z,66.08
2023-04-22T06:50:21.274Z,66.28
2023-04-22T06:51:21.495Z,66.38
2023-04-22T06:52:22.779Z,66.38
2023-04-22T06:53:21.852Z,66.49
2023-04-22T06:54:22.017Z,65.74
2023-04-22T06:55:22.198Z,65.44
2023-04-22T06:56:22.404Z,65.57
2023-04-22T06:57:22.573Z,65.54
2023-04-22T06:58:22.746Z,65.64
2023-04-22T06:59:22.914Z,65.64
2023-04-22T07:00:23.097Z,65.61
2023-04-22T07:01:23.310Z,65.30
2023-04-22T07:02:23.504Z,64.90
2023-04-22T07:03:23.904Z,64.70
2023-04-22T07:04:23.869Z,65.10
2023-04-22T07:05:24.023Z,65.17
2023-04-22T07:06:24.194Z,64.67
2023-04-22T07:07:24.366Z,64.76
2023-04-22T07:08:24.556Z,65.27
2023-04-22T07:09:24.750Z,65.37
2023-04-22T07:10:24.938Z,64.76
2023-04-22T07:11:25.134Z,64.76
2023-04-22T07:12:25.312Z,64.84
2023-04-22T07:13:25.475Z,65.04
2023-04-22T07:14:25.652Z,65.14
2023-04-22T07:15:25.838Z,64.70
2023-04-22T07:16:26.089Z,64.61
2023-04-22T07:17:26.254Z,64.20
2023-04-22T07:18:26.408Z,64.20
2023-04-22T07:19:26.615Z,63.79
2023-04-22T07:20:26.796Z,63.96
2023-04-22T07:21:26.990Z,63.66
2023-04-22T07:22:27.143Z,63.66
2023-04-22T07:23:27.339Z,63.76
2023-04-22T07:24:27.529Z,63.66
2023-04-22T07:25:27.720Z,64.04
2023-04-22T07:26:27.928Z,63.43
2023-04-22T07:27:28.069Z,64.14
2023-04-22T07:28:28.264Z,62.89
2023-04-22T07:29:28.434Z,62.79
2023-04-22T07:30:28.636Z,62.99
2023-04-22T07:31:28.839Z,63.81
2023-04-22T07:32:29.033Z,63.57
2023-04-22T07:33:29.196Z,63.37
2023-04-22T07:34:29.393Z,62.86
2023-04-22T07:35:29.668Z,64.58
2023-04-22T07:36:29.770Z,63.78
2023-04-22T07:37:29.970Z,63.17
2023-04-22T07:38:30.117Z,63.64
2023-04-22T07:39:30.322Z,62.53
2023-04-22T07:40:30.454Z,62.43
2023-04-22T07:41:30.676Z,62.63
2023-04-22T07:42:30.841Z,62.73
2023-04-22T07:43:31.027Z,62.23
2023-04-22T07:44:31.227Z,62.12
2023-04-22T07:45:31.433Z,62.33
2023-04-22T07:46:31.590Z,62.53
2023-04-22T07:47:31.793Z,62.33
2023-04-22T07:48:31.899Z,63.13
2023-04-22T07:49:32.141Z,62.50
2023-04-22T07:50:32.284Z,61.79
2023-04-22T07:51:32.480Z,61.99
2023-04-22T07:52:32.635Z,62.16
2023-04-22T07:53:32.792Z,61.36
2023-04-22T07:54:32.987Z,62.07
2023-04-22T07:55:33.188Z,60.96
2023-04-22T07:56:33.352Z,62.16
2023-04-22T07:57:33.508Z,62.27
2023-04-22T07:58:33.704Z,62.07
2023-04-22T07:59:33.895Z,61.33
2023-04-22T08:00:34.104Z,61.33
2023-04-22T08:01:34.268Z,62.04
2023-04-22T08:02:34.558Z,61.13
2023-04-22T08:03:34.805Z,61.00
2023-04-22T08:04:34.855Z,61.20
2023-04-22T08:05:34.996Z,61.37
2023-04-22T08:06:35.207Z,61.17
2023-04-22T08:07:35.362Z,60.87
2023-04-22T08:08:35.547Z,60.26
2023-04-22T08:09:35.743Z,60.46
2023-04-22T08:10:35.926Z,59.96
2023-04-22T08:11:36.133Z,60.36
2023-04-22T08:12:36.334Z,60.64
2023-04-22T08:13:36.500Z,59.76
2023-04-22T08:14:36.670Z,60.16
2023-04-22T08:15:36.891Z,59.96
2023-04-22T08:16:37.058Z,59.56
2023-04-22T08:17:37.217Z,59.45
2023-04-22T08:18:37.416Z,60.36
2023-04-22T08:19:37.759Z,59.93
2023-04-22T08:20:37.777Z,59.42
2023-04-22T08:21:37.984Z,60.33
2023-04-22T08:22:38.140Z,59.90
2023-04-22T08:23:38.359Z,59.40
2023-04-22T08:24:38.522Z,59.90
2023-04-22T08:25:38.717Z,58.89
2023-04-22T08:26:38.924Z,59.20
2023-04-22T08:27:39.845Z,59.09
2023-04-22T08:28:39.375Z,58.89
2023-04-22T08:29:39.695Z,59.70
2023-04-22T08:30:39.678Z,59.17
2023-04-22T08:31:39.975Z,59.57
2023-04-22T08:32:40.110Z,59.27
2023-04-22T08:33:40.226Z,58.69
2023-04-22T08:34:40.864Z,59.17
2023-04-22T08:35:40.600Z,59.37
2023-04-22T08:36:40.798Z,59.04
2023-04-22T08:37:41.058Z,59.24
2023-04-22T08:38:41.154Z,59.34
2023-04-22T08:39:41.565Z,59.31
2023-04-22T08:40:41.521Z,59.11
2023-04-22T08:41:41.789Z,58.41
2023-04-22T08:42:41.893Z,58.11
2023-04-22T08:43:42.084Z,58.61
2023-04-22T08:44:42.278Z,58.41
2023-04-22T08:45:42.485Z,58.71
2023-04-22T08:46:42.721Z,58.31
2023-04-22T08:47:42.934Z,58.01
2023-04-22T08:48:43.038Z,57.88
2023-04-22T08:49:43.197Z,58.07
2023-04-22T08:50:43.385Z,57.60
2023-04-22T08:51:43.619Z,57.60
2023-04-22T08:52:43.758Z,58.07
2023-04-22T08:53:43.957Z,57.48
2023-04-22T08:54:44.153Z,57.37
2023-04-22T08:55:44.406Z,58.28
2023-04-22T08:56:44.592Z,58.15
2023-04-22T08:57:44.758Z,57.82
2023-04-22T08:58:44.894Z,57.22
2023-04-22T08:59:45.090Z,56.41
2023-04-22T09:00:45.283Z,56.41
2023-04-22T09:01:45.575Z,57.32
2023-04-22T09:02:45.793Z,56.41
2023-04-22T09:03:45.949Z,56.21
2023-04-22T09:04:46.055Z,56.41
2023-04-22T09:05:46.252Z,56.19
2023-04-22T09:06:46.478Z,56.26
2023-04-22T09:07:46.668Z,55.51
2023-04-22T09:08:46.866Z,54.88
2023-04-22T09:09:47.028Z,53.82
2023-04-22T09:10:47.212Z,53.70
2023-04-22T09:11:47.456Z,54.00
2023-04-22T09:12:47.570Z,53.70
2023-04-22T09:13:47.764Z,53.70
2023-04-22T09:14:47.966Z,53.87
2023-04-22T09:15:48.168Z,53.77
2023-04-22T09:16:48.497Z,53.34
2023-04-22T09:17:48.552Z,53.05
2023-04-22T09:18:48.704Z,52.87
2023-04-22T09:19:48.905Z,53.87
2023-04-22T09:20:49.167Z,53.55
2023-04-22T09:21:50.822Z,52.64
2023-04-22T09:22:49.497Z,51.94
2023-04-22T09:23:49.656Z,52.07
2023-04-22T09:24:49.865Z,52.75
2023-04-22T09:25:50.059Z,51.94
2023-04-22T09:26:50.283Z,52.62
2023-04-22T09:27:50.421Z,52.12
2023-04-22T09:28:50.658Z,51.42
2023-04-22T09:29:50.800Z,51.14
2023-04-22T09:30:51.021Z,53.27
2023-04-22T09:31:51.213Z,53.20
2023-04-22T09:32:51.400Z,52.62
2023-04-22T09:33:51.553Z,54.13
2023-04-22T09:34:51.768Z,54.13
2023-04-22T09:35:51.987Z,54.30
2023-04-22T09:36:52.212Z,53.70
2023-04-22T09:37:52.351Z,54.27
2023-04-22T09:38:52.562Z,52.34
2023-04-22T09:39:52.767Z,51.84
2023-04-22T09:40:52.973Z,51.64
2023-04-22T09:41:53.252Z,51.92
2023-04-22T09:42:53.437Z,52.04
2023-04-22T09:43:53.602Z,51.21
2023-04-22T09:44:53.818Z,52.17
2023-04-22T09:45:54.079Z,50.76
2023-04-22T09:46:54.266Z,50.89
2023-04-22T09:47:54.511Z,51.07
2023-04-22T09:48:55.511Z,50.04
2023-04-22T09:49:55.954Z,49.72
2023-04-22T09:50:56.012Z,49.82
2023-04-22T09:51:55.255Z,50.24
2023-04-22T09:52:56.279Z,50.42
2023-04-22T09:53:55.641Z,49.82
2023-04-22T09:54:55.869Z,49.69
2023-04-22T09:55:56.060Z,50.76
2023-04-22T09:56:56.239Z,49.96
2023-04-22T09:57:56.419Z,51.04
2023-04-22T09:58:56.625Z,51.02
2023-04-22T09:59:56.808Z,50.59
2023-04-22T10:00:57.094Z,48.42
2023-04-22T10:01:57.185Z,49.34
2023-04-22T10:02:57.422Z,50.37
2023-04-22T10:03:57.599Z,50.24
2023-04-22T10:04:57.785Z,49.44
2023-04-22T10:05:57.969Z,49.11
2023-04-22T10:06:58.207Z,49.09
2023-04-22T10:07:58.969Z,48.79
2023-04-22T10:08:58.565Z,49.17
2023-04-22T10:09:58.792Z,48.37
2023-04-22T10:10:58.950Z,46.85
2023-04-22T10:11:59.173Z,48.14
2023-04-22T10:12:59.358Z,49.44
2023-04-22T10:13:59.556Z,47.85
2023-04-22T10:14:59.728Z,47.77
2023-04-22T10:15:59.957Z,48.17
2023-04-22T10:17:00.293Z,49.07
2023-04-22T10:18:00.373Z,48.25
2023-04-22T10:19:00.499Z,48.25
2023-04-22T10:20:01.385Z,48.43
2023-04-22T10:21:00.942Z,47.75
2023-04-22T10:22:01.169Z,47.55
2023-04-22T10:23:01.359Z,48.49
2023-04-22T10:24:01.536Z,49.57
2023-04-22T10:25:01.759Z,48.77
2023-04-22T10:26:01.924Z,48.45
2023-04-22T10:27:02.136Z,47.65
2023-04-22T10:28:02.969Z,47.45
2023-04-22T10:29:02.483Z,47.47
2023-04-22T10:30:02.698Z,49.37
2023-04-22T10:31:02.930Z,49.55
2023-04-22T10:32:03.169Z,48.10
2023-04-22T10:33:03.324Z,49.19
2023-04-22T10:34:03.546Z,48.87
2023-04-22T10:35:03.742Z,48.97
2023-04-22T10:36:03.993Z,48.05
2023-04-22T10:37:04.171Z,48.35
2023-04-22T10:38:04.355Z,48.55
2023-04-22T10:39:04.543Z,48.82
2023-04-22T10:40:04.716Z,49.02
2023-04-22T10:41:04.940Z,47.72
2023-04-22T10:42:05.204Z,48.37
2023-04-22T10:43:05.648Z,49.44
2023-04-22T10:44:05.535Z,48.30
2023-04-22T10:45:05.801Z,48.10
2023-04-22T10:46:05.984Z,48.38
2023-04-22T10:47:06.150Z,48.85
2023-04-22T10:48:06.379Z,47.83
2023-04-22T10:49:06.935Z,48.35
2023-04-22T10:50:06.791Z,48.53
2023-04-22T10:51:06.963Z,48.50
2023-04-22T10:52:07.343Z,47.63
2023-04-22T10:53:07.405Z,48.38
2023-04-22T10:54:07.701Z,49.05
2023-04-22T10:55:07.934Z,47.96
2023-04-22T10:56:07.990Z,48.46
2023-04-22T10:57:08.266Z,48.53
2023-04-22T10:58:08.439Z,48.03
2023-04-22T10:59:08.626Z,47.21
2023-04-22T11:00:08.839Z,47.19
2023-04-22T11:01:09.063Z,46.68
2023-04-22T11:02:09.291Z,48.90
2023-04-22T11:03:09.536Z,48.65
2023-04-22T11:04:09.841Z,46.84
2023-04-22T11:05:09.888Z,46.22
2023-04-22T11:06:10.076Z,46.73
2023-04-22T11:07:10.296Z,46.81
2023-04-22T11:08:10.488Z,46.12
2023-04-22T11:09:10.698Z,46.42
2023-04-22T11:10:10.916Z,46.99
2023-04-22T11:11:11.116Z,46.31
2023-04-22T11:12:11.378Z,46.59
2023-04-22T11:13:11.512Z,46.72
2023-04-22T11:14:11.749Z,46.34
2023-04-22T11:15:11.934Z,47.33
2023-04-22T11:16:12.233Z,49.98
2023-04-22T11:17:12.337Z,48.05
2023-04-22T11:18:12.578Z,48.13
2023-04-22T11:19:12.682Z,47.02
2023-04-22T11:20:12.902Z,45.60
2023-04-22T11:21:13.099Z,44.40
2023-04-22T11:22:13.334Z,44.01
2023-04-22T11:23:13.512Z,44.23
2023-04-22T11:24:13.691Z,45.20
2023-04-22T11:25:13.940Z,43.82
2023-04-22T11:26:14.110Z,46.00
2023-04-22T11:27:14.462Z,44.62
2023-04-22T11:28:14.546Z,46.00
2023-04-22T11:29:14.725Z,45.28
2023-04-22T11:30:15.080Z,44.28
2023-04-22T11:31:15.171Z,44.10
2023-04-22T11:32:15.315Z,44.40
2023-04-22T11:33:15.504Z,44.90
2023-04-22T11:34:15.769Z,45.26
2023-04-22T11:35:16.033Z,43.86
2023-04-22T11:36:16.124Z,44.28
2023-04-22T11:37:16.318Z,43.88
2023-04-22T11:38:16.506Z,44.53
2023-04-22T11:39:16.733Z,45.02
2023-04-22T11:40:30.230Z,45.22
2023-04-22T11:41:17.129Z,44.60
2023-04-22T11:42:17.361Z,44.40
2023-04-22T11:43:17.501Z,44.10
2023-04-22T11:44:17.714Z,43.51
2023-04-22T11:45:17.926Z,44.60
2023-04-22T11:46:19.311Z,44.31
2023-04-22T11:47:18.337Z,43.98
2023-04-22T11:48:18.503Z,44.76
2023-04-22T11:49:18.719Z,43.74
2023-04-22T11:50:18.950Z,43.64
2023-04-22T11:51:19.136Z,43.96
2023-04-22T11:52:19.661Z,43.96
2023-04-22T11:53:19.565Z,44.04
2023-04-22T11:54:19.773Z,44.46
2023-04-22T11:55:20.006Z,43.76
2023-04-22T11:56:20.224Z,43.88
2023-04-22T11:57:20.430Z,44.78
2023-04-22T11:58:20.617Z,44.68
2023-04-22T11:59:22.647Z,45.12
2023-04-22T12:00:21.115Z,44.87
2023-04-22T12:01:21.259Z,45.78
2023-04-22T12:02:21.648Z,45.89
2023-04-22T12:03:21.728Z,46.38
2023-04-22T12:04:21.904Z,46.28
2023-04-22T12:05:22.036Z,46.36
2023-04-22T12:06:22.191Z,45.76
2023-04-22T12:07:22.431Z,46.44
2023-04-22T12:08:22.679Z,46.22
2023-04-22T12:09:22.837Z,45.50
2023-04-22T12:10:23.009Z,45.12
2023-04-22T12:11:23.382Z,44.82
2023-04-22T12:12:23.424Z,45.44
2023-04-22T12:13:23.585Z,45.44
2023-04-22T12:14:23.822Z,45.64
2023-04-22T12:15:23.992Z,45.04
2023-04-22T12:16:24.215Z,45.42
2023-04-22T12:17:24.418Z,45.34
2023-04-22T12:18:24.602Z,46.51
2023-04-22T12:19:24.749Z,46.01
2023-04-22T12:20:24.937Z,45.79
2023-04-22T12:21:25.176Z,45.28
2023-04-22T12:22:25.342Z,46.00
2023-04-22T12:23:25.566Z,45.20
2023-04-22T12:24:25.745Z,46.17
2023-04-22T12:25:25.947Z,45.70
2023-04-22T12:26:26.809Z,45.50
2023-04-22T12:27:26.377Z,45.57
2023-04-22T12:28:26.569Z,45.97
2023-04-22T12:29:26.756Z,45.37
2023-04-22T12:30:26.985Z,45.28
2023-04-22T12:31:27.308Z,44.78
2023-04-22T12:32:27.410Z,44.78
2023-04-22T12:33:27.660Z,44.78
2023-04-22T12:34:27.825Z,44.78
2023-04-22T12:35:28.047Z,43.98
2023-04-22T12:36:28.224Z,45.15
2023-04-22T12:37:28.430Z,44.04
2023-04-22T12:38:28.598Z,43.84
2023-04-22T12:39:28.850Z,44.84
2023-04-22T12:40:28.994Z,44.14
2023-04-22T12:41:29.216Z,43.44
2023-04-22T12:42:29.454Z,44.46
2023-04-22T12:43:29.599Z,45.36
2023-04-22T12:44:29.804Z,44.46
2023-04-22T12:45:30.035Z,45.43
2023-04-22T12:46:30.226Z,44.04
2023-04-22T12:47:30.405Z,43.86
2023-04-22T12:48:30.563Z,45.15
2023-04-22T12:49:30.728Z,44.54
2023-04-22T12:50:30.937Z,44.44
2023-04-22T12:51:31.860Z,44.34
2023-04-22T12:52:31.331Z,44.16
2023-04-22T12:53:31.548Z,45.06
2023-04-22T12:54:31.776Z,44.08
2023-04-22T12:55:31.922Z,45.50